If you wish to contribute or participate in the discussions about articles you are invited to join SKYbrary as a registered user

 Actions

Cascavel Airport

From SKYbrary Wiki

SBCA
Airport
ICAO: SBCA – IATA: CAC
Summary
Name Cascavel Airport
Region South America and Caribbean
Territory Brazil BR.gif
Location Cascavel, Parana
Serving Cascavel
Elevation 753.77 m
2,473 ft753.77 m
Coordinates 25° 0' 7.99" S, 53° 30' 6.98" W
Runways
Designator Length Width Surface ROPS
15/33 1615 m5,298.556 ft
30 m98.425 ft
ASP /


METAR
Observation SBCA 182100Z 16020KT 9999 FEW005 SCT025 BKN080 19/18 Q1016
Station CASCAVEL
Date/Time 18 October 2019 21:00:00
Wind direction 160°
Wind speed 20 kts
Lowest cloud amount few clouds
Temperature 19°C
Dew point 18°C
Humidity 93%
QNH 1016 hPa
Weather condition n/a

Adalberto Mendes da Silva Airport is the airport serving Cascavel, Brazil.

Climatology

Humid subtropical climate (Köppen climate classification Cfa)

Maps

Terrain

Loading map...

Airport Layout

Loading map...


Accidents & Serious Incidents at or in vicinity of SBCA

None on SKYbrary